Weston, Illinois
Current Conditions -  °F | °C
As of 9:35 PM on Friday 31 Oct 2014 (Local Time) from KPNT Reporting Station
Scattered Clouds Scattered Clouds  
Wind Chill: 26°   Ceiling: Unl
Heat Index: 36°   Visibility: 10mi
Dew Point: 22°   Wind: 15mph
Humidity: 57%   Direction: 350°N
Pressure: 30.35"   Gusts: NA
Location:  40.7409°N, 88.7189°W
Report Text: KPNT 010235Z AUTO 35013KT 10SM SCT050 02/M06 A3035 RMK AO2 T00201058
Loading
Personal Weather Stations






























Interactive Weather Map
Tropical Storm Tracking
New forecast layout! Learn more

10-Day Weather Forecast

Advertisements
Track Severe Weather on mobile